Terminal Aerodrome Forecast
Issued by NWS Springfield, MO

Home | Current Version | Previous Version | Text Only | Print | Product List | Glossary On
Versions: 1 2 3 4 5 6 7 8 9 10 11 12 13 14 15 16 17 18 19 20 21 22 23 24 25 26 27 28 29 30
000
FTUS43 KSGF 301700
TAFSGF
TAF
KSGF 301726Z 3018/3118 31008KT P6SM VCSH BKN015 OVC035
     FM310400 36007KT 6SM BR BKN007 OVC015
     FM310700 36005KT 4SM BR OVC003
     FM311500 35008KT P6SM OVC010=

USA.gov is the U.S. government's official web portal to all federal, state and local government web resources and services.